Indian Springs, Alabama
Current Conditions -  °F | °C
As of 7:09 PM on Saturday 22 Nov 2014 (Local Time) from KEET Reporting Station
Overcast Overcast  
Wind Chill: 61°   Ceiling: 2600
Heat Index: 61°   Visibility: 10mi
Dew Point: 51°   Wind: 7mph
Humidity: 70%   Direction: 110°ESE
Pressure: 30.15"   Gusts: NA
Location:  33.3024°N, 86.8026°W
Report Text: KEET 230109Z AUTO 11006KT 10SM BKN026 BKN035 OVC050 16/11 A3015 RMK AO2 T01610106
Loading
Personal Weather Stations






























Interactive Weather Map New forecast layout! Learn more

10-Day Weather Forecast

Advertisements
Track Severe Weather on mobile